createdAt,value
2023-02-25T00:02:15.506Z,19.77
2023-02-25T00:04:42.979Z,22.55
2023-02-25T00:07:10.477Z,12.63
2023-02-25T00:09:37.963Z,10.50
2023-02-25T00:12:05.643Z,10.10
2023-02-25T00:14:33.091Z,10.30
2023-02-25T00:17:02.093Z,10.63
2023-02-25T00:22:31.671Z,16.83
2023-02-25T00:24:59.087Z,13.70
2023-02-25T00:27:26.590Z,13.70
2023-02-25T00:32:45.961Z,11.20
2023-02-25T00:35:13.726Z,20.47
2023-02-25T00:37:41.170Z,16.67
2023-02-25T00:40:14.559Z,16.30
2023-02-25T00:42:42.537Z,13.97
2023-02-25T00:45:11.495Z,20.43
2023-02-25T00:47:39.257Z,10.50
2023-02-25T00:50:10.246Z,11.53
2023-02-25T00:55:33.227Z,12.87
2023-02-25T01:01:04.281Z,16.30
2023-02-25T01:03:31.777Z,14.67
2023-02-25T01:06:00.817Z,11.87
2023-02-25T01:08:28.531Z,13.87
2023-02-25T01:10:55.953Z,7.37
2023-02-25T01:13:23.635Z,11.53
2023-02-25T01:15:57.820Z,19.83
2023-02-25T01:18:25.278Z,11.43
2023-02-25T01:20:53.575Z,11.07
2023-02-25T01:23:23.584Z,18.13
2023-02-25T01:25:51.004Z,12.47
2023-02-25T01:28:18.445Z,9.70
2023-02-25T01:30:47.292Z,7.27
2023-02-25T01:33:14.731Z,14.30
2023-02-25T01:35:42.175Z,9.20
2023-02-25T01:38:09.637Z,20.47
2023-02-25T01:40:38.675Z,11.90
2023-02-25T01:43:07.650Z,8.20
2023-02-25T01:45:35.407Z,13.13
2023-02-25T01:48:07.958Z,13.17
2023-02-25T01:50:41.277Z,11.03
2023-02-25T01:55:59.373Z,7.90
2023-02-25T01:58:28.014Z,10.77
2023-02-25T02:03:53.807Z,10.20
2023-02-25T02:06:24.167Z,9.40
2023-02-25T02:08:51.846Z,17.53
2023-02-25T02:11:20.695Z,13.80
2023-02-25T02:13:50.792Z,14.27
2023-02-25T02:16:35.464Z,13.10
2023-02-25T02:19:09.122Z,7.53
2023-02-25T02:21:46.678Z,21.07
2023-02-25T02:24:34.913Z,7.60
2023-02-25T02:27:18.074Z,11.53
2023-02-25T02:30:28.252Z,5.47
2023-02-25T02:36:04.325Z,14.27
2023-02-25T02:41:36.484Z,11.87
2023-02-25T02:44:07.749Z,10.87
2023-02-25T02:46:38.225Z,8.97
2023-02-25T02:49:10.067Z,10.67
2023-02-25T02:51:41.098Z,11.33
2023-02-25T02:54:11.553Z,8.40
2023-02-25T02:56:41.146Z,14.40
2023-02-25T03:02:03.649Z,10.27
2023-02-25T03:04:33.649Z,12.20
2023-02-25T03:07:04.027Z,7.23
2023-02-25T03:09:36.640Z,8.00
2023-02-25T03:12:04.362Z,8.67
2023-02-25T03:14:34.330Z,11.43
2023-02-25T03:17:06.724Z,12.20
2023-02-25T03:22:42.219Z,10.97
2023-02-25T03:25:13.535Z,6.80
2023-02-25T03:30:42.013Z,11.47
2023-02-25T03:33:15.210Z,8.50
2023-02-25T03:35:43.652Z,15.70
2023-02-25T03:38:16.838Z,18.70
2023-02-25T03:40:44.490Z,12.73
2023-02-25T03:43:15.115Z,8.50
2023-02-25T03:45:44.339Z,13.97
2023-02-25T03:48:13.015Z,7.83
2023-02-25T03:50:43.640Z,12.03
2023-02-25T03:53:14.070Z,10.60
2023-02-25T03:55:50.606Z,13.03
2023-02-25T03:58:18.215Z,9.67
2023-02-25T04:03:34.617Z,7.47
2023-02-25T04:06:02.380Z,14.53
2023-02-25T04:08:31.147Z,11.57
2023-02-25T04:10:58.557Z,12.17
2023-02-25T04:13:26.055Z,12.50
2023-02-25T04:15:53.540Z,9.17
2023-02-25T04:21:29.578Z,10.70
2023-02-25T04:23:58.664Z,15.60
2023-02-25T04:29:14.612Z,9.73
2023-02-25T04:31:42.422Z,10.17
2023-02-25T04:34:09.928Z,9.83
2023-02-25T04:36:37.533Z,14.40
2023-02-25T04:39:06.411Z,16.70
2023-02-25T04:41:35.662Z,11.67
2023-02-25T04:44:04.777Z,11.77
2023-02-25T04:46:33.264Z,10.83
2023-02-25T04:49:01.250Z,10.03
2023-02-25T04:51:29.099Z,10.57
2023-02-25T04:53:56.935Z,7.80
2023-02-25T04:59:28.044Z,7.67
2023-02-25T05:01:55.634Z,10.07
2023-02-25T05:04:23.381Z,8.10
2023-02-25T05:06:50.817Z,6.37
2023-02-25T05:12:20.604Z,12.30
2023-02-25T05:14:50.132Z,10.67
2023-02-25T05:17:18.190Z,5.20
2023-02-25T05:20:09.608Z,19.60
2023-02-25T05:22:37.026Z,10.33
2023-02-25T05:27:52.691Z,6.33
2023-02-25T05:30:21.706Z,4.87
2023-02-25T05:32:49.357Z,9.40
2023-02-25T05:35:16.951Z,6.73
2023-02-25T05:37:44.402Z,7.83
2023-02-25T05:40:13.886Z,6.37
2023-02-25T05:42:41.296Z,6.53
2023-02-25T05:45:10.379Z,3.93
2023-02-25T05:47:39.357Z,9.67
2023-02-25T05:50:07.364Z,7.47
2023-02-25T05:52:34.791Z,5.90
2023-02-25T05:55:02.808Z,9.07
2023-02-25T05:57:30.533Z,10.57
2023-02-25T05:59:57.958Z,11.13
2023-02-25T06:02:25.466Z,5.97
2023-02-25T06:04:55.450Z,6.87
2023-02-25T06:07:22.856Z,5.43
2023-02-25T06:09:50.275Z,11.57
2023-02-25T06:12:17.706Z,8.20
2023-02-25T06:17:43.626Z,8.93
2023-02-25T06:20:15.419Z,9.17
2023-02-25T06:25:31.959Z,8.43
2023-02-25T06:27:59.656Z,3.90
2023-02-25T06:33:15.611Z,6.77
2023-02-25T06:35:44.418Z,6.70
2023-02-25T06:38:11.830Z,3.50
2023-02-25T06:40:39.275Z,4.40
2023-02-25T06:46:06.832Z,8.50
2023-02-25T06:48:34.262Z,9.03
2023-02-25T06:51:04.674Z,6.53
2023-02-25T06:53:32.105Z,8.93
2023-02-25T06:55:59.892Z,7.23
2023-02-25T06:58:27.339Z,7.37
2023-02-25T07:00:54.763Z,4.80
2023-02-25T07:03:22.247Z,5.37
2023-02-25T07:05:49.676Z,4.20
2023-02-25T07:08:43.580Z,5.47
2023-02-25T07:11:15.039Z,6.73
2023-02-25T07:13:43.685Z,12.20
2023-02-25T07:16:11.461Z,7.13
2023-02-25T07:18:38.978Z,8.30
2023-02-25T07:21:06.724Z,5.30
2023-02-25T07:23:34.368Z,4.80
2023-02-25T07:26:04.911Z,3.57
2023-02-25T07:28:32.721Z,3.83
2023-02-25T07:31:01.208Z,3.83
2023-02-25T07:33:29.379Z,7.70
2023-02-25T07:39:03.203Z,5.33
2023-02-25T07:41:31.963Z,8.67
2023-02-25T07:44:03.312Z,3.83
2023-02-25T07:49:33.804Z,5.43
2023-02-25T07:52:01.908Z,5.40
2023-02-25T07:54:29.376Z,6.23
2023-02-25T07:56:59.526Z,5.07
2023-02-25T08:02:25.666Z,6.50
2023-02-25T08:04:53.147Z,4.40
2023-02-25T08:07:21.183Z,4.13
2023-02-25T08:09:48.611Z,6.67
2023-02-25T08:15:16.158Z,6.03
2023-02-25T08:17:43.760Z,4.83
2023-02-25T08:20:13.810Z,4.57
2023-02-25T08:22:41.410Z,5.13
2023-02-25T08:28:07.651Z,3.90
2023-02-25T08:30:37.106Z,4.73
2023-02-25T08:33:04.949Z,5.17
2023-02-25T08:35:32.884Z,5.43
2023-02-25T08:40:48.638Z,4.47
2023-02-25T08:43:16.133Z,3.70
2023-02-25T08:45:45.044Z,4.07
2023-02-25T08:48:13.492Z,3.70
2023-02-25T08:53:34.134Z,6.23
2023-02-25T08:58:58.930Z,5.53
2023-02-25T09:01:41.957Z,5.67
2023-02-25T09:04:09.523Z,5.33
2023-02-25T09:06:37.036Z,3.40
2023-02-25T09:11:52.999Z,7.53
2023-02-25T09:14:21.132Z,4.83
2023-02-25T09:16:50.192Z,4.20
2023-02-25T09:19:18.333Z,7.90
2023-02-25T09:24:34.817Z,6.07
2023-02-25T09:27:07.365Z,6.43
2023-02-25T09:29:34.929Z,10.13
2023-02-25T09:32:03.999Z,9.90
2023-02-25T09:37:29.637Z,4.50
2023-02-25T09:39:57.388Z,8.23
2023-02-25T09:42:26.704Z,8.63
2023-02-25T09:44:58.360Z,4.57
2023-02-25T09:50:21.577Z,7.80
2023-02-25T09:52:54.670Z,4.70
2023-02-25T09:55:25.390Z,5.43
2023-02-25T09:57:57.386Z,7.10
2023-02-25T10:03:19.678Z,5.43
2023-02-25T10:08:56.699Z,6.63
2023-02-25T10:11:33.906Z,4.90
2023-02-25T10:14:09.003Z,4.30
2023-02-25T10:16:43.364Z,4.40
2023-02-25T10:22:22.496Z,4.17
2023-02-25T10:27:57.173Z,4.63
2023-02-25T10:30:31.166Z,5.17
2023-02-25T10:33:01.235Z,11.73
2023-02-25T10:35:32.316Z,8.00
2023-02-25T10:40:59.187Z,5.70
2023-02-25T10:43:28.428Z,7.63
2023-02-25T10:46:01.176Z,8.57
2023-02-25T10:48:28.912Z,5.97
2023-02-25T10:54:04.770Z,5.33
2023-02-25T10:59:39.296Z,7.73
2023-02-25T11:02:22.058Z,7.00
2023-02-25T11:04:52.281Z,4.83
2023-02-25T11:07:33.090Z,5.00
2023-02-25T11:12:59.360Z,5.50
2023-02-25T11:18:29.706Z,5.40
2023-02-25T11:20:59.032Z,5.80
2023-02-25T11:23:31.350Z,6.63
2023-02-25T11:25:58.889Z,6.53
2023-02-25T11:31:18.875Z,7.00
2023-02-25T11:33:52.810Z,5.27
2023-02-25T11:36:24.937Z,5.43
2023-02-25T11:39:07.100Z,8.13
2023-02-25T11:44:43.159Z,5.30
2023-02-25T11:50:25.166Z,5.10
2023-02-25T11:52:59.054Z,5.60
2023-02-25T11:55:38.928Z,6.57
2023-02-25T11:58:12.815Z,6.40
2023-02-25T12:03:52.286Z,6.63
2023-02-25T12:09:46.192Z,6.30
2023-02-25T12:15:50.213Z,6.87
2023-02-25T12:22:17.018Z,6.50
2023-02-25T12:24:58.401Z,6.00
2023-02-25T12:27:47.133Z,6.17
2023-02-25T12:30:35.517Z,6.47
2023-02-25T12:33:10.318Z,6.60
2023-02-25T12:36:25.416Z,6.10
2023-02-25T12:41:47.478Z,6.43
2023-02-25T12:47:26.019Z,6.23
2023-02-25T12:50:22.057Z,6.77
2023-02-25T12:53:04.488Z,6.47
2023-02-25T12:55:43.809Z,5.97
2023-02-25T12:58:43.746Z,6.10
2023-02-25T13:01:22.137Z,6.10
2023-02-25T13:07:03.588Z,6.20
2023-02-25T13:12:53.741Z,6.13
2023-02-25T13:15:29.406Z,6.30
2023-02-25T13:18:17.389Z,5.90
2023-02-25T13:20:54.955Z,6.30
2023-02-25T13:23:33.133Z,7.17
2023-02-25T13:29:12.709Z,6.43
2023-02-25T13:35:05.988Z,6.53
2023-02-25T13:37:42.317Z,6.40
2023-02-25T13:40:22.267Z,6.60
2023-02-25T13:43:19.560Z,6.47
2023-02-25T13:46:16.155Z,6.90
2023-02-25T13:49:06.815Z,6.77
2023-02-25T13:52:02.792Z,6.53
2023-02-25T13:54:41.168Z,6.23
2023-02-25T13:57:41.361Z,6.83
2023-02-25T14:00:45.762Z,6.70
2023-02-25T14:03:31.501Z,6.73
2023-02-25T14:06:04.337Z,6.50
2023-02-25T14:11:51.327Z,7.00
2023-02-25T14:14:35.488Z,6.60
2023-02-25T14:17:35.522Z,6.80
2023-02-25T14:20:20.952Z,7.03
2023-02-25T14:22:51.967Z,6.67
2023-02-25T14:25:33.218Z,6.20
2023-02-25T14:28:08.398Z,6.40
2023-02-25T14:30:42.301Z,6.90
2023-02-25T14:36:13.282Z,7.00
2023-02-25T14:39:01.841Z,6.60
2023-02-25T14:41:36.647Z,6.53
2023-02-25T14:44:11.011Z,6.93
2023-02-25T14:46:41.171Z,6.30
2023-02-25T14:49:12.935Z,6.40
2023-02-25T14:52:02.261Z,6.77
2023-02-25T14:55:02.125Z,6.13
2023-02-25T14:57:53.523Z,6.50
2023-02-25T15:00:50.997Z,6.60
2023-02-25T15:06:31.550Z,6.43
2023-02-25T15:12:22.740Z,6.77
2023-02-25T15:15:09.258Z,7.00
2023-02-25T15:18:16.449Z,7.37
2023-02-25T15:20:46.008Z,7.33
2023-02-25T15:23:15.872Z,8.10
2023-02-25T15:28:43.651Z,7.27
2023-02-25T15:31:28.228Z,6.87
2023-02-25T15:34:11.362Z,7.00
2023-02-25T15:36:48.318Z,7.43
2023-02-25T15:39:49.588Z,7.10
2023-02-25T15:42:17.478Z,7.20
2023-02-25T15:44:45.699Z,6.53
2023-02-25T15:47:27.908Z,7.87
2023-02-25T15:49:57.739Z,6.83
2023-02-25T15:52:56.215Z,7.60
2023-02-25T15:55:39.286Z,7.40
2023-02-25T15:58:43.897Z,7.27
2023-02-25T16:01:46.032Z,7.30
2023-02-25T16:04:50.537Z,7.80
2023-02-25T16:07:20.822Z,8.10
2023-02-25T16:12:54.648Z,7.47
2023-02-25T16:15:33.302Z,8.10
2023-02-25T16:18:21.741Z,8.20
2023-02-25T16:20:50.689Z,7.80
2023-02-25T16:23:23.354Z,7.10
2023-02-25T16:25:57.274Z,7.60
2023-02-25T16:31:19.499Z,7.73
2023-02-25T16:33:52.039Z,7.97
2023-02-25T16:36:25.895Z,7.30
2023-02-25T16:38:57.796Z,7.03
2023-02-25T16:44:33.924Z,6.70
2023-02-25T16:47:03.083Z,6.60
2023-02-25T16:49:32.800Z,7.87
2023-02-25T16:52:01.334Z,7.73
2023-02-25T16:54:32.403Z,7.33
2023-02-25T17:00:14.071Z,7.57
2023-02-25T17:02:47.466Z,7.60
2023-02-25T17:05:28.860Z,10.27
2023-02-25T17:07:59.443Z,7.00
2023-02-25T17:10:48.659Z,7.93
2023-02-25T17:13:20.822Z,7.23
2023-02-25T17:15:48.275Z,7.33
2023-02-25T17:18:24.509Z,6.90
2023-02-25T17:23:53.548Z,9.50
2023-02-25T17:26:21.835Z,7.33
2023-02-25T17:28:51.882Z,7.20
2023-02-25T17:31:24.418Z,8.47
2023-02-25T17:33:54.554Z,7.03
2023-02-25T17:36:24.865Z,7.27
2023-02-25T17:38:56.074Z,7.37
2023-02-25T17:41:24.063Z,7.40
2023-02-25T17:46:52.543Z,7.60
2023-02-25T17:49:27.382Z,6.37
2023-02-25T17:51:56.306Z,7.10
2023-02-25T17:54:25.804Z,6.63
2023-02-25T17:59:57.754Z,5.13
2023-02-25T18:05:25.539Z,4.80
2023-02-25T18:08:17.833Z,4.80
2023-02-25T18:10:51.107Z,6.33
2023-02-25T18:13:28.790Z,9.13
2023-02-25T18:16:29.532Z,9.20
2023-02-25T18:18:57.740Z,7.70
2023-02-25T18:21:26.784Z,5.37
2023-02-25T18:23:54.235Z,7.60
2023-02-25T18:26:24.337Z,6.07
2023-02-25T18:28:52.180Z,4.83
2023-02-25T18:31:20.717Z,5.20
2023-02-25T18:33:48.527Z,6.27
2023-02-25T18:36:23.400Z,5.00
2023-02-25T18:38:54.415Z,6.83
2023-02-25T18:41:21.876Z,6.10
2023-02-25T18:46:51.576Z,8.30
2023-02-25T18:49:19.544Z,4.67
2023-02-25T18:52:06.084Z,6.70
2023-02-25T18:54:35.055Z,10.30
2023-02-25T18:57:02.752Z,6.10
2023-02-25T18:59:30.186Z,4.93
2023-02-25T19:04:40.787Z,4.73
2023-02-25T19:07:10.553Z,6.83
2023-02-25T19:09:39.284Z,7.07
2023-02-25T19:12:06.911Z,6.93
2023-02-25T19:14:34.341Z,6.70
2023-02-25T19:20:05.404Z,5.83
2023-02-25T19:22:33.539Z,6.37
2023-02-25T19:25:02.315Z,4.77
2023-02-25T19:27:30.446Z,4.00
2023-02-25T19:29:59.482Z,4.93
2023-02-25T19:32:27.150Z,10.80
2023-02-25T19:34:54.640Z,3.90
2023-02-25T19:37:22.096Z,4.13
2023-02-25T19:39:49.782Z,8.93
2023-02-25T19:45:14.198Z,5.00
2023-02-25T19:50:54.642Z,7.03
2023-02-25T19:53:22.083Z,4.53
2023-02-25T19:55:49.587Z,4.07
2023-02-25T19:58:17.040Z,4.20
2023-02-25T20:03:44.012Z,5.63
2023-02-25T20:06:13.574Z,6.97
2023-02-25T20:11:27.629Z,3.60
2023-02-25T20:13:55.086Z,3.43
2023-02-25T20:16:24.529Z,5.13
2023-02-25T20:18:56.215Z,4.73
2023-02-25T20:21:23.779Z,3.57
2023-02-25T20:26:39.796Z,4.67
2023-02-25T20:29:07.836Z,3.50
2023-02-25T20:31:35.466Z,3.10
2023-02-25T20:34:05.788Z,3.37
2023-02-25T20:39:40.668Z,4.00
2023-02-25T20:45:15.517Z,3.40
2023-02-25T20:47:43.342Z,4.50
2023-02-25T20:50:16.194Z,4.67
2023-02-25T20:52:43.900Z,3.60
2023-02-25T20:55:11.984Z,3.70
2023-02-25T20:57:39.483Z,5.23
2023-02-25T21:00:09.858Z,3.60
2023-02-25T21:02:37.294Z,3.20
2023-02-25T21:05:06.340Z,3.30
2023-02-25T21:07:35.165Z,3.10
2023-02-25T21:10:02.600Z,5.40
2023-02-25T21:12:30.014Z,3.30
2023-02-25T21:17:45.667Z,4.23
2023-02-25T21:20:13.433Z,4.63
2023-02-25T21:22:42.226Z,3.40
2023-02-25T21:25:10.085Z,3.27
2023-02-25T21:30:36.657Z,2.90
2023-02-25T21:33:04.371Z,3.30
2023-02-25T21:35:31.815Z,4.17
2023-02-25T21:38:00.590Z,5.10
2023-02-25T21:40:28.238Z,3.27
2023-02-25T21:42:56.530Z,4.97
2023-02-25T21:45:23.938Z,6.00
2023-02-25T21:47:51.423Z,3.77
2023-02-25T21:50:19.155Z,4.90
2023-02-25T21:55:43.672Z,3.87
2023-02-25T21:58:11.143Z,3.73
2023-02-25T22:03:43.082Z,3.73
2023-02-25T22:06:10.912Z,3.87
2023-02-25T22:08:40.105Z,3.40
2023-02-25T22:11:13.203Z,6.20
2023-02-25T22:13:40.886Z,4.63
2023-02-25T22:16:08.610Z,3.80
2023-02-25T22:21:38.561Z,3.47
2023-02-25T22:24:06.464Z,3.77
2023-02-25T22:26:36.564Z,6.07
2023-02-25T22:29:06.609Z,7.20
2023-02-25T22:31:34.828Z,6.03
2023-02-25T22:34:02.666Z,5.07
2023-02-25T22:36:30.176Z,4.00
2023-02-25T22:41:47.904Z,5.33
2023-02-25T22:44:17.939Z,5.80
2023-02-25T22:46:45.406Z,7.20
2023-02-25T22:52:15.622Z,4.47
2023-02-25T22:54:43.129Z,8.30
2023-02-25T22:57:11.956Z,5.13
2023-02-25T22:59:39.454Z,6.80
2023-02-25T23:05:10.029Z,7.80
2023-02-25T23:07:37.578Z,5.70
2023-02-25T23:10:05.782Z,6.33
2023-02-25T23:12:34.539Z,9.90
2023-02-25T23:15:01.965Z,6.47
2023-02-25T23:17:29.397Z,6.63
2023-02-25T23:20:00.127Z,6.03
2023-02-25T23:25:26.713Z,5.40
2023-02-25T23:27:57.022Z,6.13
2023-02-25T23:33:26.561Z,5.63
2023-02-25T23:35:54.037Z,5.20
2023-02-25T23:38:22.799Z,11.70
2023-02-25T23:40:50.423Z,7.33
2023-02-25T23:43:19.202Z,5.87
2023-02-25T23:45:47.297Z,7.13
2023-02-25T23:48:15.009Z,9.77
2023-02-25T23:50:42.420Z,7.20
2023-02-25T23:53:09.859Z,5.73
2023-02-25T23:58:26.910Z,7.23
